NCAR-RAP Real-Time Weather Data

Output produced by METARs form (17 September 2019  16:58 UTC)
found at http://weather.rap.ucar.edu/surface/
 
KBDL 171651Z 01012KT 10SM FEW050 22/06 A3013 RMK AO2 SLP203 T02170061
KBDL 171551Z 01009KT 10SM FEW045 21/07 A3015 RMK AO2 SLP209 T02110072
KBDL 171451Z 01008KT 10SM FEW035 FEW250 19/08 A3015 RMK AO2 SLP211 T01940083 50003
KBDL 171351Z 00000KT 10SM CLR 17/09 A3016 RMK AO2 SLP212 T01670094
KBDL 171251Z 03003KT 10SM CLR 14/09 A3016 RMK AO2 SLP211 T01440089
KBDL 171151Z 00000KT 10SM FEW250 12/08 A3014 RMK AO2 SLP207 T01170083 10122 20089 51017
KBDL 171051Z 00000KT 10SM CLR 09/07 A3013 RMK AO2 SLP203 T00890072
KBDL 170951Z 00000KT 10SM CLR 09/08 A3011 RMK AO2 SLP196 T00890078
KBDL 170851Z 02003KT 10SM CLR 09/08 A3009 RMK AO2 SLP190 T00940078 58002
KBDL 170751Z 02005KT 10SM CLR 10/08 A3009 RMK AO2 SLP190 T01000078
KBDL 170651Z 01005KT 10SM CLR 10/08 A3010 RMK AO2 SLP193 T01000083
KBDL 170551Z 36003KT 10SM CLR 11/09 A3010 RMK AO2 SLP193 T01110089 10178 20111 51009
KBDL 170451Z 33005KT 10SM CLR 12/09 A3010 RMK AO2 SLP192 T01220094 402500117
KBDL 170351Z 34003KT 10SM CLR 13/09 A3009 RMK AO2 SLP188 T01280094
KBDL 170251Z 00000KT 10SM CLR 12/09 A3007 RMK AO2 SLP184 T01220094 51013
KBDL 170051Z 06005KT 10SM CLR 16/08 A3005 RMK AO2 SLP177 T01610083
KBDL 162351Z 36003KT 10SM FEW065 17/08 A3004 RMK AO2 SLP171 T01720083 10250 20172 53013
KBDL 162251Z 33006KT 10SM FEW075 FEW110 19/09 A3002 RMK AO2 SLP165 T01890089
KBDL 162151Z 35006KT 10SM FEW075 23/08 A3001 RMK AO2 SLP161 T02280078
KBDL 162051Z 34007KT 10SM FEW040 FEW130 24/08 A3000 RMK AO2 SLP157 T02390083 56008
KBDL 161951Z VRB03KT 10SM FEW040 FEW130 24/09 A3000 RMK AO2 SLP157 T02440094